createdAt,value
2022-12-23T00:00:43.759Z,37.30
2022-12-23T00:03:11.216Z,40.72
2022-12-23T00:05:39.331Z,31.48
2022-12-23T00:08:07.959Z,34.10
2022-12-23T00:10:38.461Z,35.57
2022-12-23T00:13:24.103Z,31.60
2022-12-23T00:15:51.241Z,35.70
2022-12-23T00:18:18.633Z,34.65
2022-12-23T00:20:46.069Z,34.10
2022-12-23T00:23:13.827Z,29.83
2022-12-23T00:25:45.157Z,31.92
2022-12-23T00:28:15.731Z,25.85
2022-12-23T00:31:01.528Z,27.50
2022-12-23T00:33:33.235Z,24.48
2022-12-23T00:36:00.726Z,31.80
2022-12-23T00:38:46.979Z,30.45
2022-12-23T00:41:36.665Z,33.05
2022-12-23T00:44:04.708Z,30.45
2022-12-23T00:46:32.653Z,28.75
2022-12-23T00:49:18.692Z,30.47
2022-12-23T00:51:46.540Z,31.92
2022-12-23T00:54:14.109Z,30.58
2022-12-23T00:56:41.401Z,30.40
2022-12-23T00:59:08.722Z,32.58
2022-12-23T01:01:54.913Z,30.83
2022-12-23T01:04:41.759Z,31.85
2022-12-23T01:07:09.429Z,26.13
2022-12-23T01:09:37.160Z,29.10
2022-12-23T01:12:05.007Z,28.10
2022-12-23T01:14:32.761Z,26.73
2022-12-23T01:17:00.606Z,27.75
2022-12-23T01:19:28.592Z,26.95
2022-12-23T01:21:56.003Z,27.77
2022-12-23T01:24:23.446Z,26.95
2022-12-23T01:26:50.954Z,24.17
2022-12-23T01:29:18.600Z,23.75
2022-12-23T01:31:46.244Z,23.65
2022-12-23T01:34:13.882Z,23.15
2022-12-23T01:36:41.369Z,25.08
2022-12-23T01:39:08.777Z,25.83
2022-12-23T01:41:54.879Z,22.60
2022-12-23T01:44:50.161Z,28.17
2022-12-23T01:47:23.016Z,28.20
2022-12-23T01:49:51.004Z,28.90
2022-12-23T01:52:18.718Z,27.23
2022-12-23T01:54:46.237Z,30.60
2022-12-23T01:57:13.789Z,30.40
2022-12-23T02:00:00.458Z,29.55
2022-12-23T02:02:48.968Z,28.38
2022-12-23T02:05:17.188Z,27.83
2022-12-23T02:08:03.186Z,27.10
2022-12-23T02:10:36.474Z,29.55
2022-12-23T02:13:26.296Z,29.30
2022-12-23T02:16:18.967Z,24.10
2022-12-23T02:18:52.650Z,27.60
2022-12-23T02:21:31.809Z,27.45
2022-12-23T02:24:21.169Z,27.38
2022-12-23T02:27:17.582Z,27.27
2022-12-23T02:30:06.813Z,27.65
2022-12-23T02:33:08.199Z,29.70
2022-12-23T02:35:38.683Z,30.42
2022-12-23T02:38:31.916Z,34.13
2022-12-23T02:41:07.563Z,32.50
2022-12-23T02:43:45.310Z,30.85
2022-12-23T02:46:24.706Z,28.73
2022-12-23T02:49:04.049Z,34.55
2022-12-23T02:51:34.824Z,31.30
2022-12-23T02:54:05.057Z,34.65
2022-12-23T02:56:34.204Z,38.80
2022-12-23T02:59:09.146Z,45.60
2022-12-23T03:01:37.579Z,49.28
2022-12-23T03:04:06.927Z,50.42
2022-12-23T03:06:40.604Z,49.72
2022-12-23T03:09:08.603Z,51.92
2022-12-23T03:11:59.213Z,55.63
2022-12-23T03:15:04.062Z,54.42
2022-12-23T03:17:43.750Z,55.22
2022-12-23T03:20:29.214Z,51.20
2022-12-23T03:23:11.947Z,60.00
2022-12-23T03:25:48.599Z,55.83
2022-12-23T03:28:25.072Z,59.22
2022-12-23T03:30:55.212Z,63.08
2022-12-23T03:33:28.953Z,60.13
2022-12-23T03:36:01.093Z,58.25
2022-12-23T03:38:29.525Z,87.20
2022-12-23T03:40:59.703Z,91.00
2022-12-23T03:43:31.225Z,96.15
2022-12-23T03:46:01.694Z,102.75
2022-12-23T03:48:41.081Z,119.22
2022-12-23T03:51:16.083Z,169.07
2022-12-23T03:53:51.732Z,131.70
2022-12-23T03:56:31.972Z,147.27
2022-12-23T03:59:01.530Z,137.55
2022-12-23T04:01:55.839Z,136.93
2022-12-23T04:04:48.242Z,166.43
2022-12-23T04:07:24.477Z,126.15
2022-12-23T04:09:52.813Z,139.70
2022-12-23T04:12:23.537Z,200.77
2022-12-23T04:14:50.994Z,191.32
2022-12-23T04:17:19.371Z,152.40
2022-12-23T04:19:47.633Z,178.35
2022-12-23T04:22:16.658Z,190.55
2022-12-23T04:24:44.636Z,135.25
2022-12-23T04:27:13.799Z,225.63
2022-12-23T04:29:41.458Z,164.13
2022-12-23T04:32:09.379Z,235.80
2022-12-23T04:34:37.251Z,291.15
2022-12-23T04:37:04.894Z,276.27
2022-12-23T04:39:32.564Z,247.43
2022-12-23T04:41:59.965Z,238.83
2022-12-23T04:44:27.648Z,218.27
2022-12-23T04:46:55.680Z,226.35
2022-12-23T04:49:23.382Z,184.38
2022-12-23T04:51:51.275Z,183.68
2022-12-23T04:54:19.016Z,147.87
2022-12-23T04:56:46.570Z,202.25
2022-12-23T04:59:14.275Z,165.05
2022-12-23T05:01:42.860Z,179.88
2022-12-23T05:04:10.924Z,177.88
2022-12-23T05:06:38.283Z,194.33
2022-12-23T05:09:06.402Z,186.15
2022-12-23T05:11:40.167Z,237.43
2022-12-23T05:14:13.246Z,146.50
2022-12-23T05:16:40.646Z,153.80
2022-12-23T05:19:08.274Z,183.43
2022-12-23T05:21:36.014Z,166.30
2022-12-23T05:24:03.929Z,178.13
2022-12-23T05:26:31.775Z,142.40
2022-12-23T05:28:59.589Z,162.50
2022-12-23T05:31:27.312Z,170.23
2022-12-23T05:33:56.007Z,160.55
2022-12-23T05:36:24.881Z,150.32
2022-12-23T05:38:52.277Z,150.48
2022-12-23T05:41:19.851Z,165.65
2022-12-23T05:43:47.491Z,154.03
2022-12-23T05:46:15.505Z,149.20
2022-12-23T05:48:44.592Z,110.70
2022-12-23T05:51:12.037Z,148.93
2022-12-23T05:53:39.370Z,168.18
2022-12-23T05:56:07.262Z,134.60
2022-12-23T05:58:34.942Z,125.25
2022-12-23T06:01:03.286Z,117.22
2022-12-23T06:03:31.256Z,102.05
2022-12-23T06:05:59.289Z,86.10
2022-12-23T06:08:26.951Z,108.43
2022-12-23T06:10:54.291Z,101.30
2022-12-23T06:13:21.906Z,88.40
2022-12-23T06:15:49.163Z,108.95
2022-12-23T06:18:17.051Z,104.47
2022-12-23T06:20:48.204Z,105.33
2022-12-23T06:23:16.064Z,108.65
2022-12-23T06:25:43.613Z,106.13
2022-12-23T06:28:11.427Z,103.70
2022-12-23T06:30:38.894Z,135.48
2022-12-23T06:33:06.624Z,136.03
2022-12-23T06:35:34.303Z,146.75
2022-12-23T06:38:01.624Z,136.90
2022-12-23T06:40:29.968Z,131.43
2022-12-23T06:42:57.703Z,145.43
2022-12-23T06:45:25.181Z,164.17
2022-12-23T06:47:52.731Z,125.55
2022-12-23T06:50:20.922Z,125.30
2022-12-23T06:52:49.117Z,147.88
2022-12-23T06:55:16.978Z,123.53
2022-12-23T06:57:45.189Z,115.23
2022-12-23T07:00:13.477Z,124.50
2022-12-23T07:02:41.056Z,146.63
2022-12-23T07:05:09.315Z,106.65
2022-12-23T07:07:36.991Z,124.53
2022-12-23T07:10:05.728Z,120.23
2022-12-23T07:12:34.324Z,127.00
2022-12-23T07:15:01.819Z,109.43
2022-12-23T07:17:30.202Z,101.07
2022-12-23T07:19:57.632Z,88.90
2022-12-23T07:22:25.325Z,98.47
2022-12-23T07:24:53.000Z,81.43
2022-12-23T07:27:20.407Z,84.43
2022-12-23T07:29:47.839Z,66.03
2022-12-23T07:32:15.215Z,77.82
2022-12-23T07:34:42.928Z,64.57
2022-12-23T07:37:10.208Z,77.20
2022-12-23T07:39:37.658Z,53.63
2022-12-23T07:44:52.662Z,49.78
2022-12-23T07:47:20.212Z,42.03
2022-12-23T07:49:47.718Z,51.10
2022-12-23T07:52:15.215Z,56.95
2022-12-23T07:54:42.824Z,53.65
2022-12-23T07:57:10.335Z,61.00
2022-12-23T07:59:38.022Z,58.13
2022-12-23T08:02:05.401Z,59.13
2022-12-23T08:04:32.943Z,70.68
2022-12-23T08:07:00.239Z,64.07
2022-12-23T08:09:27.945Z,56.35
2022-12-23T08:11:55.225Z,57.97
2022-12-23T08:14:23.492Z,53.95
2022-12-23T08:16:50.847Z,49.80
2022-12-23T08:19:18.235Z,55.00
2022-12-23T08:21:46.043Z,57.28
2022-12-23T08:24:13.848Z,60.40
2022-12-23T08:26:41.348Z,52.75
2022-12-23T08:29:08.859Z,51.78
2022-12-23T08:31:36.238Z,56.20
2022-12-23T08:34:03.688Z,61.90
2022-12-23T08:36:34.843Z,46.97
2022-12-23T08:39:08.198Z,68.25
2022-12-23T08:41:44.046Z,68.25
2022-12-23T08:44:12.059Z,62.47
2022-12-23T08:46:40.105Z,57.35
2022-12-23T08:49:07.872Z,48.50
2022-12-23T08:51:35.869Z,56.92
2022-12-23T08:54:03.882Z,75.88
2022-12-23T08:56:34.268Z,57.28
2022-12-23T08:59:02.083Z,85.60
2022-12-23T09:01:31.342Z,67.27
2022-12-23T09:03:59.210Z,44.95
2022-12-23T09:06:30.294Z,47.28
2022-12-23T09:08:58.646Z,51.53
2022-12-23T09:11:27.903Z,51.13
2022-12-23T09:13:56.368Z,61.93
2022-12-23T09:16:24.135Z,67.03
2022-12-23T09:18:51.538Z,73.57
2022-12-23T09:21:20.939Z,90.43
2022-12-23T09:23:48.978Z,112.68
2022-12-23T09:26:24.900Z,84.43
2022-12-23T09:28:52.547Z,86.63
2022-12-23T09:31:20.938Z,84.88
2022-12-23T09:33:49.924Z,76.18
2022-12-23T09:36:18.150Z,81.03
2022-12-23T09:38:45.729Z,74.30
2022-12-23T09:41:50.304Z,78.43
2022-12-23T09:44:44.840Z,57.50
2022-12-23T09:47:20.100Z,66.38
2022-12-23T09:49:50.947Z,58.30
2022-12-23T09:52:27.858Z,67.57
2022-12-23T09:54:55.951Z,53.67
2022-12-23T09:57:30.286Z,52.33
2022-12-23T10:00:07.113Z,58.63
2022-12-23T10:02:44.103Z,54.70
2022-12-23T10:05:41.400Z,65.53
2022-12-23T10:08:18.400Z,67.63
2022-12-23T10:10:50.298Z,66.70
2022-12-23T10:13:26.695Z,64.45
2022-12-23T10:15:54.987Z,75.10
2022-12-23T10:18:29.111Z,66.47
2022-12-23T10:21:29.356Z,58.22
2022-12-23T10:23:57.113Z,60.67
2022-12-23T10:26:40.035Z,73.97
2022-12-23T10:29:20.757Z,69.38
2022-12-23T10:32:06.165Z,52.40
2022-12-23T10:35:08.313Z,65.63
2022-12-23T10:37:43.057Z,58.97
2022-12-23T10:40:16.310Z,63.42
2022-12-23T10:42:52.894Z,73.80
2022-12-23T10:45:25.408Z,64.57
2022-12-23T10:48:07.413Z,64.45
2022-12-23T10:51:01.133Z,74.85
2022-12-23T10:53:38.256Z,69.70
2022-12-23T10:56:06.437Z,66.68
2022-12-23T10:58:37.423Z,66.00
2022-12-23T11:01:14.992Z,56.42
2022-12-23T11:03:54.490Z,76.72
2022-12-23T11:06:21.956Z,66.80
2022-12-23T11:08:49.419Z,57.90
2022-12-23T11:11:17.000Z,64.40
2022-12-23T11:13:47.710Z,67.57
2022-12-23T11:16:26.985Z,53.65
2022-12-23T11:19:00.428Z,57.80
2022-12-23T11:21:29.277Z,59.45
2022-12-23T11:24:16.312Z,51.50
2022-12-23T11:26:46.156Z,50.10
2022-12-23T11:29:23.431Z,50.50
2022-12-23T11:31:51.436Z,54.17
2022-12-23T11:34:20.860Z,46.88
2022-12-23T11:37:07.142Z,52.90
2022-12-23T11:39:37.233Z,48.17
2022-12-23T11:42:16.438Z,47.13
2022-12-23T11:44:50.136Z,50.63
2022-12-23T11:47:26.304Z,47.90
2022-12-23T11:50:01.440Z,55.53
2022-12-23T11:52:31.170Z,52.20
2022-12-23T11:55:00.942Z,48.50
2022-12-23T11:57:38.176Z,48.08
2022-12-23T12:00:07.947Z,46.83
2022-12-23T12:02:40.114Z,51.27
2022-12-23T12:05:17.452Z,49.25
2022-12-23T12:07:45.450Z,43.97
2022-12-23T12:10:33.464Z,47.85
2022-12-23T12:13:19.449Z,51.55
2022-12-23T12:15:57.961Z,53.67
2022-12-23T12:18:26.651Z,50.72
2022-12-23T12:20:57.187Z,47.13
2022-12-23T12:23:43.610Z,47.60
2022-12-23T12:26:25.183Z,55.00
2022-12-23T12:28:59.465Z,49.43
2022-12-23T12:31:32.968Z,53.25
2022-12-23T12:34:24.196Z,53.65
2022-12-23T12:37:07.998Z,58.50
2022-12-23T12:39:42.657Z,65.05
2022-12-23T12:42:22.984Z,59.23
2022-12-23T12:45:23.335Z,62.20
2022-12-23T12:48:13.138Z,71.93
2022-12-23T12:50:57.426Z,68.05
2022-12-23T12:53:25.299Z,66.55
2022-12-23T12:55:57.946Z,61.93
2022-12-23T12:58:25.681Z,58.70
2022-12-23T13:01:13.603Z,60.47
2022-12-23T13:04:00.207Z,55.25
2022-12-23T13:06:45.993Z,54.42
2022-12-23T13:09:48.091Z,46.83
2022-12-23T13:12:46.004Z,52.70
2022-12-23T13:15:24.687Z,55.05
2022-12-23T13:18:21.002Z,63.20
2022-12-23T13:21:06.358Z,53.67
2022-12-23T13:23:48.684Z,60.13
2022-12-23T13:26:25.116Z,61.20
2022-12-23T13:29:15.482Z,62.42
2022-12-23T13:32:01.694Z,58.70
2022-12-23T13:35:01.485Z,63.72
2022-12-23T13:38:24.088Z,64.00
2022-12-23T13:41:06.016Z,68.07
2022-12-23T13:43:45.487Z,65.57
2022-12-23T13:46:30.458Z,67.80
2022-12-23T13:49:10.555Z,70.07
2022-12-23T13:51:53.221Z,69.67
2022-12-23T13:54:38.015Z,67.90
2022-12-23T13:57:29.701Z,69.20
2022-12-23T14:00:22.673Z,66.38
2022-12-23T14:03:01.104Z,61.97
2022-12-23T14:05:41.148Z,73.27
2022-12-23T14:08:20.845Z,68.72
2022-12-23T14:10:59.044Z,67.05
2022-12-23T14:17:17.043Z,61.47
2022-12-23T14:20:02.165Z,63.73
2022-12-23T14:23:04.835Z,62.03
2022-12-23T14:25:44.410Z,60.45
2022-12-23T14:28:32.074Z,77.03
2022-12-23T14:30:59.744Z,63.00
2022-12-23T14:33:33.425Z,66.10
2022-12-23T14:36:23.591Z,60.13
2022-12-23T14:39:12.508Z,67.05
2022-12-23T14:41:50.412Z,63.95
2022-12-23T14:44:42.061Z,64.60
2022-12-23T14:47:34.045Z,64.50
2022-12-23T14:50:36.734Z,70.88
2022-12-23T14:53:21.255Z,59.15
2022-12-23T14:55:50.427Z,63.05
2022-12-23T14:58:21.787Z,63.78
2022-12-23T15:01:13.525Z,61.07
2022-12-23T15:03:47.075Z,62.65
2022-12-23T15:06:27.074Z,67.60
2022-12-23T15:08:55.746Z,71.95
2022-12-23T15:11:29.522Z,64.90
2022-12-23T15:13:59.257Z,58.53
2022-12-23T15:16:33.593Z,65.68
2022-12-23T15:19:13.258Z,64.45
2022-12-23T15:21:40.532Z,62.80
2022-12-23T15:24:15.091Z,65.55
2022-12-23T15:27:03.629Z,68.33
2022-12-23T15:29:33.665Z,77.13
2022-12-23T15:32:01.555Z,72.03
2022-12-23T15:34:33.873Z,79.45
2022-12-23T15:37:01.377Z,75.65
2022-12-23T15:39:34.089Z,78.33
2022-12-23T15:42:02.268Z,69.38
2022-12-23T15:44:38.772Z,69.45
2022-12-23T15:47:32.875Z,68.63
2022-12-23T15:50:01.149Z,50.03
2022-12-23T15:52:30.651Z,55.23
2022-12-23T15:55:04.270Z,56.47
2022-12-23T15:57:32.048Z,55.88
2022-12-23T16:00:00.162Z,55.72
2022-12-23T16:05:35.360Z,65.77
2022-12-23T16:08:29.075Z,82.55
2022-12-23T16:11:18.781Z,76.72
2022-12-23T16:14:01.838Z,85.15
2022-12-23T16:16:38.640Z,81.03
2022-12-23T16:19:06.539Z,86.00
2022-12-23T16:21:35.760Z,84.97
2022-12-23T16:24:08.127Z,77.72
2022-12-23T16:26:42.679Z,79.18
2022-12-23T16:29:11.128Z,77.90
2022-12-23T16:31:42.789Z,75.43
2022-12-23T16:34:13.789Z,78.10
2022-12-23T16:36:41.401Z,77.82
2022-12-23T16:39:17.898Z,75.97
2022-12-23T16:41:45.468Z,73.15
2022-12-23T16:44:12.892Z,76.47
2022-12-23T16:46:44.557Z,70.28
2022-12-23T16:49:19.510Z,77.85
2022-12-23T16:51:47.857Z,80.07
2022-12-23T16:54:18.947Z,83.35
2022-12-23T16:56:50.523Z,95.43
2022-12-23T16:59:18.300Z,95.97
2022-12-23T17:01:47.682Z,110.63
2022-12-23T17:04:16.198Z,96.30
2022-12-23T17:06:43.809Z,107.95
2022-12-23T17:09:11.987Z,101.17
2022-12-23T17:11:49.903Z,95.47
2022-12-23T17:14:22.888Z,118.95
2022-12-23T17:16:51.006Z,106.07
2022-12-23T17:19:27.201Z,103.95
2022-12-23T17:22:00.398Z,103.70
2022-12-23T17:24:28.318Z,114.65
2022-12-23T17:26:57.180Z,117.30
2022-12-23T17:29:24.805Z,144.10
2022-12-23T17:31:52.828Z,151.50
2022-12-23T17:34:24.846Z,154.13
2022-12-23T17:36:53.187Z,156.88
2022-12-23T17:39:21.415Z,146.95
2022-12-23T17:41:49.025Z,173.15
2022-12-23T17:44:17.983Z,157.00
2022-12-23T17:46:46.277Z,159.37
2022-12-23T17:49:14.015Z,162.50
2022-12-23T17:51:42.007Z,149.60
2022-12-23T17:54:21.774Z,153.35
2022-12-23T17:56:49.544Z,156.25
2022-12-23T17:59:17.323Z,148.93
2022-12-23T18:01:45.067Z,107.20
2022-12-23T18:04:12.700Z,79.88
2022-12-23T18:06:39.931Z,70.05
2022-12-23T18:09:07.532Z,69.65
2022-12-23T18:11:38.138Z,71.93
2022-12-23T18:14:05.720Z,82.18
2022-12-23T18:16:33.069Z,112.22
2022-12-23T18:19:00.850Z,120.40
2022-12-23T18:21:29.259Z,101.30
2022-12-23T18:23:58.205Z,91.80
2022-12-23T18:26:25.875Z,95.63
2022-12-23T18:28:54.710Z,87.63
2022-12-23T18:31:27.600Z,98.45
2022-12-23T18:33:55.454Z,85.25
2022-12-23T18:36:29.147Z,120.30
2022-12-23T18:38:57.594Z,109.07
2022-12-23T18:41:26.260Z,102.15
2022-12-23T18:43:54.431Z,102.38
2022-12-23T18:46:21.925Z,91.63
2022-12-23T18:48:49.799Z,88.90
2022-12-23T18:51:19.242Z,94.72
2022-12-23T18:53:47.886Z,86.93
2022-12-23T18:56:16.439Z,100.38
2022-12-23T18:58:44.198Z,100.03
2022-12-23T19:01:13.139Z,134.83
2022-12-23T19:03:41.092Z,128.43
2022-12-23T19:06:10.242Z,127.22
2022-12-23T19:08:38.590Z,123.05
2022-12-23T19:11:20.668Z,101.88
2022-12-23T19:13:48.244Z,95.47
2022-12-23T19:16:17.953Z,96.00
2022-12-23T19:18:46.454Z,112.95
2022-12-23T19:21:14.796Z,113.43
2022-12-23T19:23:43.073Z,118.10
2022-12-23T19:26:12.594Z,133.47
2022-12-23T19:28:44.263Z,106.68
2022-12-23T19:31:13.313Z,106.78
2022-12-23T19:33:42.257Z,109.55
2022-12-23T19:36:17.540Z,86.80
2022-12-23T19:38:45.852Z,89.47
2022-12-23T19:41:13.617Z,67.43
2022-12-23T19:43:43.935Z,63.38
2022-12-23T19:46:12.946Z,62.67
2022-12-23T19:48:40.635Z,55.80
2022-12-23T19:51:09.393Z,54.50
2022-12-23T19:53:37.907Z,59.45
2022-12-23T19:56:08.475Z,52.20
2022-12-23T19:58:37.372Z,54.60
2022-12-23T20:01:09.663Z,50.38
2022-12-23T20:03:38.070Z,51.27
2022-12-23T20:06:06.467Z,52.85
2022-12-23T20:08:35.176Z,54.83
2022-12-23T20:11:11.282Z,58.05
2022-12-23T20:13:39.052Z,59.03
2022-12-23T20:16:07.615Z,59.97
2022-12-23T20:18:35.473Z,49.70
2022-12-23T20:21:03.855Z,57.75
2022-12-23T20:23:31.627Z,67.53
2022-12-23T20:25:59.382Z,60.20
2022-12-23T20:28:26.810Z,58.37
2022-12-23T20:31:16.148Z,60.90
2022-12-23T20:33:43.667Z,73.28
2022-12-23T20:36:13.631Z,82.70
2022-12-23T20:38:43.303Z,81.05
2022-12-23T20:41:13.638Z,81.87
2022-12-23T20:43:42.537Z,88.63
2022-12-23T20:46:12.971Z,74.53
2022-12-23T20:48:41.109Z,70.97
2022-12-23T20:51:12.642Z,70.07
2022-12-23T20:53:40.652Z,70.33
2022-12-23T20:56:11.644Z,59.85
2022-12-23T20:58:58.212Z,63.05
2022-12-23T21:01:28.905Z,58.13
2022-12-23T21:03:57.650Z,61.22
2022-12-23T21:06:25.650Z,61.57
2022-12-23T21:08:56.405Z,69.93
2022-12-23T21:11:23.804Z,56.85
2022-12-23T21:13:51.656Z,58.92
2022-12-23T21:16:19.992Z,56.83
2022-12-23T21:18:53.501Z,57.60
2022-12-23T21:21:23.968Z,59.05
2022-12-23T21:23:52.413Z,52.75
2022-12-23T21:26:21.963Z,52.22
2022-12-23T21:28:50.665Z,58.15
2022-12-23T21:31:22.727Z,56.77
2022-12-23T21:33:51.643Z,57.58
2022-12-23T21:36:21.791Z,65.75
2022-12-23T21:38:49.871Z,66.85
2022-12-23T21:41:23.520Z,63.03
2022-12-23T21:43:51.519Z,73.53
2022-12-23T21:46:21.618Z,93.93
2022-12-23T21:48:50.455Z,72.68
2022-12-23T21:51:20.515Z,94.85
2022-12-23T21:53:51.521Z,135.23
2022-12-23T21:56:22.144Z,85.30
2022-12-23T21:58:49.775Z,79.15
2022-12-23T22:01:19.721Z,158.98
2022-12-23T22:03:49.523Z,152.85
2022-12-23T22:06:22.934Z,120.43
2022-12-23T22:08:52.693Z,140.93
2022-12-23T22:11:26.463Z,110.97
2022-12-23T22:13:55.689Z,117.05
2022-12-23T22:16:25.583Z,93.90
2022-12-23T22:18:53.690Z,73.55
2022-12-23T22:21:23.690Z,83.87
2022-12-23T22:23:51.991Z,102.57
2022-12-23T22:26:25.332Z,83.40
2022-12-23T22:28:55.550Z,74.18
2022-12-23T22:31:42.436Z,105.65
2022-12-23T22:34:13.696Z,94.93
2022-12-23T22:36:41.524Z,87.18
2022-12-23T22:39:14.210Z,115.65
2022-12-23T22:41:45.243Z,113.88
2022-12-23T22:44:13.707Z,88.35
2022-12-23T22:46:41.705Z,94.50
2022-12-23T22:49:12.733Z,84.55
2022-12-23T22:51:41.125Z,77.05
2022-12-23T22:54:10.155Z,71.65
2022-12-23T22:56:38.293Z,88.38
2022-12-23T22:59:05.535Z,64.20
2022-12-23T23:01:34.759Z,65.93
2022-12-23T23:04:03.554Z,70.25
2022-12-23T23:06:38.015Z,68.65
2022-12-23T23:09:07.022Z,75.32
2022-12-23T23:11:35.019Z,68.87
2022-12-23T23:14:02.556Z,61.38
2022-12-23T23:16:30.306Z,55.45
2022-12-23T23:18:59.452Z,52.40
2022-12-23T23:21:27.396Z,58.10
2022-12-23T23:23:54.855Z,56.47
2022-12-23T23:26:22.726Z,63.15
2022-12-23T23:28:50.576Z,52.90
2022-12-23T23:34:05.732Z,44.83
2022-12-23T23:36:33.718Z,50.20
2022-12-23T23:39:01.635Z,44.00
2022-12-23T23:41:29.407Z,43.30
2022-12-23T23:43:56.746Z,46.22
2022-12-23T23:46:24.670Z,51.08
2022-12-23T23:48:52.563Z,47.57
2022-12-23T23:51:20.185Z,49.08
2022-12-23T23:53:47.582Z,49.97
2022-12-23T23:56:18.096Z,51.85
2022-12-23T23:58:47.756Z,57.97
